createdAt,value
2023-05-24T00:00:50.692Z,0.00
2023-05-24T00:01:50.674Z,0.00
2023-05-24T00:02:50.770Z,0.00
2023-05-24T00:03:50.810Z,0.00
2023-05-24T00:04:50.678Z,0.00
2023-05-24T00:05:50.620Z,0.00
2023-05-24T00:06:50.609Z,0.00
2023-05-24T00:07:50.592Z,0.00
2023-05-24T00:08:50.567Z,0.00
2023-05-24T00:09:50.585Z,0.00
2023-05-24T00:10:50.568Z,0.00
2023-05-24T00:11:50.545Z,0.00
2023-05-24T00:12:50.535Z,0.00
2023-05-24T00:13:50.533Z,0.00
2023-05-24T00:14:50.507Z,0.00
2023-05-24T00:15:50.499Z,0.00
2023-05-24T00:16:50.542Z,0.00
2023-05-24T00:17:50.505Z,0.00
2023-05-24T00:18:50.472Z,0.00
2023-05-24T00:19:50.474Z,0.00
2023-05-24T00:20:50.540Z,0.00
2023-05-24T00:21:50.400Z,0.00
2023-05-24T00:22:50.392Z,0.00
2023-05-24T00:23:50.408Z,0.00
2023-05-24T00:24:50.357Z,0.00
2023-05-24T00:25:50.378Z,0.00
2023-05-24T00:26:50.338Z,0.00
2023-05-24T00:27:50.327Z,0.00
2023-05-24T00:28:50.313Z,0.00
2023-05-24T00:29:50.313Z,0.00
2023-05-24T00:30:50.279Z,0.00
2023-05-24T00:31:50.313Z,0.00
2023-05-24T00:32:50.315Z,0.00
2023-05-24T00:33:50.263Z,0.00
2023-05-24T00:34:50.216Z,0.00
2023-05-24T00:35:50.237Z,0.00
2023-05-24T00:36:50.207Z,0.00
2023-05-24T00:37:50.207Z,0.00
2023-05-24T00:38:50.166Z,0.00
2023-05-24T00:39:50.190Z,0.00
2023-05-24T00:40:50.141Z,0.00
2023-05-24T00:41:50.126Z,0.00
2023-05-24T00:42:50.148Z,0.00
2023-05-24T00:43:50.100Z,0.00
2023-05-24T00:44:50.111Z,0.00
2023-05-24T00:45:50.097Z,0.00
2023-05-24T00:46:50.065Z,0.00
2023-05-24T00:47:50.100Z,0.00
2023-05-24T00:48:50.033Z,0.00
2023-05-24T00:49:50.027Z,0.00
2023-05-24T00:50:50.009Z,0.00
2023-05-24T00:51:50.020Z,0.00
2023-05-24T00:52:49.985Z,0.00
2023-05-24T00:53:49.966Z,0.00
2023-05-24T00:54:49.960Z,0.00
2023-05-24T00:55:49.932Z,0.00
2023-05-24T00:56:49.951Z,0.00
2023-05-24T00:57:49.910Z,0.00
2023-05-24T00:58:49.909Z,0.00
2023-05-24T00:59:49.885Z,0.00
2023-05-24T01:00:49.884Z,0.00
2023-05-24T01:01:49.947Z,0.00
2023-05-24T01:02:49.934Z,0.00
2023-05-24T01:03:49.911Z,0.00
2023-05-24T01:04:49.838Z,0.00
2023-05-24T01:05:49.826Z,0.00
2023-05-24T01:06:49.809Z,0.00
2023-05-24T01:07:49.773Z,0.00
2023-05-24T01:08:49.784Z,0.00
2023-05-24T01:09:49.752Z,0.00
2023-05-24T01:10:49.762Z,0.00
2023-05-24T01:11:49.736Z,0.00
2023-05-24T01:12:49.720Z,0.00
2023-05-24T01:13:49.690Z,0.00
2023-05-24T01:14:49.705Z,0.00
2023-05-24T01:15:49.740Z,0.00
2023-05-24T01:16:49.659Z,0.00
2023-05-24T01:17:49.687Z,0.00
2023-05-24T01:18:49.650Z,0.00
2023-05-24T01:19:49.742Z,0.00
2023-05-24T01:20:49.779Z,0.00
2023-05-24T01:21:49.616Z,0.00
2023-05-24T01:22:49.601Z,0.00
2023-05-24T01:23:49.575Z,0.00
2023-05-24T01:24:49.556Z,0.00
2023-05-24T01:25:49.573Z,0.00
2023-05-24T01:26:49.522Z,0.00
2023-05-24T01:27:49.500Z,0.00
2023-05-24T01:28:49.489Z,0.00
2023-05-24T01:29:49.494Z,0.00
2023-05-24T01:30:49.503Z,0.00
2023-05-24T01:31:49.481Z,0.00
2023-05-24T01:32:49.479Z,0.00
2023-05-24T01:33:49.435Z,0.00
2023-05-24T01:34:49.441Z,0.00
2023-05-24T01:35:49.419Z,0.00
2023-05-24T01:36:49.388Z,0.00
2023-05-24T01:37:49.386Z,0.00
2023-05-24T01:38:49.371Z,0.00
2023-05-24T01:39:49.384Z,0.00
2023-05-24T01:40:49.368Z,0.00
2023-05-24T01:41:49.326Z,0.00
2023-05-24T01:42:49.335Z,0.00
2023-05-24T01:43:49.298Z,0.00
2023-05-24T01:44:49.314Z,0.00
2023-05-24T01:45:49.274Z,0.00
2023-05-24T01:46:49.300Z,0.00
2023-05-24T01:47:49.292Z,0.00
2023-05-24T01:48:49.226Z,0.00
2023-05-24T01:49:49.282Z,0.00
2023-05-24T01:50:49.213Z,0.00
2023-05-24T01:51:49.196Z,0.00
2023-05-24T01:52:48.678Z,0.00
2023-05-24T01:53:49.148Z,0.00
2023-05-24T01:54:49.166Z,0.00
2023-05-24T01:55:49.131Z,0.00
2023-05-24T01:56:49.128Z,0.00
2023-05-24T01:57:49.105Z,0.00
2023-05-24T01:58:49.098Z,0.00
2023-05-24T01:59:47.919Z,0.00
2023-05-24T02:00:49.093Z,0.00
2023-05-24T02:01:49.080Z,0.00
2023-05-24T02:02:49.155Z,0.00
2023-05-24T02:03:49.049Z,0.00
2023-05-24T02:04:49.037Z,0.00
2023-05-24T02:05:49.013Z,0.00
2023-05-24T02:06:48.993Z,0.00
2023-05-24T02:07:48.967Z,0.00
2023-05-24T02:08:48.966Z,0.00
2023-05-24T02:09:48.981Z,0.00
2023-05-24T02:10:48.938Z,0.00
2023-05-24T02:11:48.965Z,0.00
2023-05-24T02:12:48.902Z,0.00
2023-05-24T02:13:48.908Z,0.00
2023-05-24T02:14:48.893Z,0.00
2023-05-24T02:15:48.877Z,0.00
2023-05-24T02:16:48.926Z,0.00
2023-05-24T02:17:48.913Z,0.00
2023-05-24T02:18:48.842Z,0.00
2023-05-24T02:19:48.844Z,0.00
2023-05-24T02:20:48.822Z,0.00
2023-05-24T02:21:48.791Z,0.00
2023-05-24T02:22:48.792Z,0.00
2023-05-24T02:23:48.771Z,0.00
2023-05-24T02:24:48.756Z,0.00
2023-05-24T02:25:48.732Z,0.00
2023-05-24T02:26:48.728Z,0.00
2023-05-24T02:27:48.740Z,0.00
2023-05-24T02:28:47.445Z,0.00
2023-05-24T02:29:48.691Z,0.00
2023-05-24T02:30:48.721Z,0.00
2023-05-24T02:31:48.646Z,0.00
2023-05-24T02:32:48.731Z,0.00
2023-05-24T02:33:48.644Z,0.00
2023-05-24T02:34:48.626Z,0.00
2023-05-24T02:35:48.628Z,0.00
2023-05-24T02:36:48.589Z,0.00
2023-05-24T02:37:48.587Z,0.00
2023-05-24T02:38:48.574Z,0.00
2023-05-24T02:39:48.540Z,0.00
2023-05-24T02:40:48.539Z,0.00
2023-05-24T02:41:48.520Z,0.00
2023-05-24T02:42:48.518Z,0.00
2023-05-24T02:43:48.573Z,4.00
2023-05-24T02:44:48.507Z,0.00
2023-05-24T02:45:48.478Z,4.00
2023-05-24T02:46:48.582Z,4.00
2023-05-24T02:47:48.598Z,4.00
2023-05-24T02:48:48.549Z,4.00
2023-05-24T02:49:48.425Z,4.00
2023-05-24T02:50:48.411Z,4.00
2023-05-24T02:51:48.413Z,4.00
2023-05-24T02:52:48.421Z,4.00
2023-05-24T02:53:48.360Z,4.00
2023-05-24T02:54:48.345Z,4.00
2023-05-24T02:55:48.346Z,4.00
2023-05-24T02:56:48.345Z,4.00
2023-05-24T02:57:48.317Z,4.00
2023-05-24T02:58:48.308Z,0.00
2023-05-24T02:59:48.309Z,0.00
2023-05-24T03:00:48.289Z,4.00
2023-05-24T03:01:48.304Z,4.00
2023-05-24T03:02:48.354Z,4.00
2023-05-24T03:03:48.339Z,4.00
2023-05-24T03:04:48.223Z,4.00
2023-05-24T03:05:48.193Z,4.00
2023-05-24T03:06:48.217Z,4.00
2023-05-24T03:07:48.183Z,8.00
2023-05-24T03:08:48.159Z,8.00
2023-05-24T03:09:48.160Z,8.00
2023-05-24T03:10:48.175Z,12.00
2023-05-24T03:11:48.131Z,12.00
2023-05-24T03:12:48.109Z,12.00
2023-05-24T03:13:47.578Z,12.00
2023-05-24T03:14:48.086Z,16.00
2023-05-24T03:15:48.131Z,16.00
2023-05-24T03:16:48.042Z,20.00
2023-05-24T03:17:48.081Z,24.00
2023-05-24T03:18:48.039Z,28.00
2023-05-24T03:19:48.025Z,32.00
2023-05-24T03:20:48.033Z,32.00
2023-05-24T03:21:48.005Z,36.00
2023-05-24T03:22:47.974Z,44.00
2023-05-24T03:23:47.979Z,52.00
2023-05-24T03:24:47.967Z,60.00
2023-05-24T03:25:47.953Z,64.00
2023-05-24T03:26:47.936Z,76.00
2023-05-24T03:27:47.902Z,84.00
2023-05-24T03:28:47.934Z,92.00
2023-05-24T03:29:47.903Z,108.00
2023-05-24T03:30:47.883Z,120.00
2023-05-24T03:31:47.903Z,136.00
2023-05-24T03:32:47.883Z,148.00
2023-05-24T03:33:47.855Z,164.00
2023-05-24T03:34:47.842Z,180.00
2023-05-24T03:35:47.809Z,200.00
2023-05-24T03:36:47.795Z,220.00
2023-05-24T03:37:47.785Z,236.00
2023-05-24T03:38:47.777Z,260.00
2023-05-24T03:39:47.774Z,284.00
2023-05-24T03:40:47.749Z,308.00
2023-05-24T03:41:47.731Z,340.00
2023-05-24T03:42:47.717Z,372.00
2023-05-24T03:43:47.702Z,408.00
2023-05-24T03:44:47.688Z,444.00
2023-05-24T03:45:47.713Z,480.00
2023-05-24T03:46:47.663Z,520.00
2023-05-24T03:47:47.709Z,564.00
2023-05-24T03:48:47.659Z,612.00
2023-05-24T03:49:47.616Z,660.00
2023-05-24T03:50:47.622Z,704.00
2023-05-24T03:51:47.580Z,756.00
2023-05-24T03:52:47.570Z,808.00
2023-05-24T03:53:47.562Z,864.00
2023-05-24T03:54:45.836Z,920.00
2023-05-24T03:55:47.552Z,972.00
2023-05-24T03:56:47.524Z,1024.00
2023-05-24T03:57:47.504Z,1080.00
2023-05-24T03:58:47.511Z,1136.00
2023-05-24T03:59:47.504Z,1196.00
2023-05-24T04:00:47.473Z,1260.00
2023-05-24T04:01:47.511Z,1320.00
2023-05-24T04:02:47.525Z,1380.00
2023-05-24T04:03:47.496Z,1436.00
2023-05-24T04:04:47.407Z,1488.00
2023-05-24T04:05:47.394Z,1540.00
2023-05-24T04:06:47.393Z,1596.00
2023-05-24T04:07:47.384Z,1652.00
2023-05-24T04:08:47.362Z,1708.00
2023-05-24T04:09:47.361Z,1760.00
2023-05-24T04:10:47.352Z,1804.00
2023-05-24T04:11:47.317Z,1856.00
2023-05-24T04:12:47.328Z,1904.00
2023-05-24T04:13:47.302Z,1960.00
2023-05-24T04:14:47.273Z,2016.00
2023-05-24T04:15:47.265Z,2060.00
2023-05-24T04:16:47.456Z,2128.00
2023-05-24T04:17:47.386Z,2208.00
2023-05-24T04:18:47.302Z,2300.00
2023-05-24T04:19:47.205Z,2392.00
2023-05-24T04:20:47.190Z,2488.00
2023-05-24T04:21:47.163Z,2600.00
2023-05-24T04:22:47.176Z,2740.00
2023-05-24T04:23:47.145Z,2916.00
2023-05-24T04:24:47.187Z,3100.00
2023-05-24T04:25:47.119Z,3272.00
2023-05-24T04:26:47.327Z,3428.00
2023-05-24T04:27:47.110Z,3572.00
2023-05-24T04:28:47.096Z,3704.00
2023-05-24T04:29:47.066Z,3840.00
2023-05-24T04:30:47.061Z,3988.00
2023-05-24T04:31:47.102Z,4144.00
2023-05-24T04:32:47.043Z,4304.00
2023-05-24T04:33:47.002Z,4480.00
2023-05-24T04:34:47.005Z,4680.00
2023-05-24T04:35:46.995Z,4904.00
2023-05-24T04:36:46.993Z,5116.00
2023-05-24T04:37:46.964Z,5336.00
2023-05-24T04:38:46.961Z,5548.00
2023-05-24T04:39:46.939Z,5836.00
2023-05-24T04:40:46.938Z,6232.00
2023-05-24T04:41:46.932Z,6476.00
2023-05-24T04:42:46.921Z,6580.00
2023-05-24T04:43:46.894Z,6604.00
2023-05-24T04:44:46.875Z,6588.00
2023-05-24T04:45:46.878Z,6516.00
2023-05-24T04:46:46.890Z,6448.00
2023-05-24T04:47:46.853Z,6412.00
2023-05-24T04:48:46.819Z,6440.00
2023-05-24T04:49:46.813Z,6480.00
2023-05-24T04:50:46.806Z,6580.00
2023-05-24T04:51:46.809Z,6644.00
2023-05-24T04:52:46.779Z,6740.00
2023-05-24T04:53:46.769Z,6804.00
2023-05-24T04:54:46.736Z,6836.00
2023-05-24T04:55:46.751Z,6924.00
2023-05-24T04:56:46.707Z,7076.00
2023-05-24T04:57:46.698Z,7184.00
2023-05-24T04:58:46.686Z,7268.00
2023-05-24T04:59:46.678Z,7368.00
2023-05-24T05:00:46.677Z,7444.00
2023-05-24T05:01:46.669Z,7528.00
2023-05-24T05:02:46.704Z,7636.00
2023-05-24T05:03:46.774Z,7752.00
2023-05-24T05:04:46.598Z,7828.00
2023-05-24T05:05:46.093Z,7924.00
2023-05-24T05:06:46.575Z,7992.00
2023-05-24T05:07:46.563Z,8044.00
2023-05-24T05:08:46.554Z,8148.00
2023-05-24T05:09:46.539Z,8252.00
2023-05-24T05:10:46.507Z,8340.00
2023-05-24T05:11:46.507Z,8448.00
2023-05-24T05:12:46.485Z,8592.00
2023-05-24T05:13:46.477Z,8724.00
2023-05-24T05:14:46.463Z,8856.00
2023-05-24T05:15:46.449Z,9004.00
2023-05-24T05:16:46.718Z,9176.00
2023-05-24T05:17:46.440Z,9332.00
2023-05-24T05:18:46.426Z,9436.00
2023-05-24T05:19:45.909Z,9604.00
2023-05-24T05:20:46.720Z,9832.00
2023-05-24T05:21:46.365Z,9992.00
2023-05-24T05:22:46.345Z,10152.00
2023-05-24T05:23:46.351Z,10316.00
2023-05-24T05:24:46.331Z,10452.00
2023-05-24T05:25:46.315Z,10588.00
2023-05-24T05:26:46.281Z,10844.00
2023-05-24T05:27:46.278Z,11332.00
2023-05-24T05:28:46.288Z,11788.00
2023-05-24T05:29:46.260Z,11980.00
2023-05-24T05:30:46.233Z,12020.00
2023-05-24T05:31:46.235Z,12116.00
2023-05-24T05:32:46.264Z,11672.00
2023-05-24T05:33:46.201Z,9944.00
2023-05-24T05:34:46.173Z,8284.00
2023-05-24T05:35:46.156Z,7860.00
2023-05-24T05:36:46.144Z,7920.00
2023-05-24T05:37:46.203Z,8004.00
2023-05-24T05:38:46.123Z,8080.00
2023-05-24T05:39:46.110Z,8160.00
2023-05-24T05:40:46.097Z,8272.00
2023-05-24T05:41:46.321Z,8444.00
2023-05-24T05:42:46.073Z,8664.00
2023-05-24T05:43:46.062Z,8856.00
2023-05-24T05:44:46.047Z,8988.00
2023-05-24T05:45:46.057Z,8944.00
2023-05-24T05:46:46.096Z,8896.00
2023-05-24T05:47:46.040Z,9320.00
2023-05-24T05:48:46.612Z,9916.00
2023-05-24T05:49:45.996Z,10156.00
2023-05-24T05:50:45.964Z,10120.00
2023-05-24T05:51:45.951Z,10068.00
2023-05-24T05:52:45.964Z,10072.00
2023-05-24T05:53:45.927Z,10052.00
2023-05-24T05:54:45.946Z,9932.00
2023-05-24T05:55:45.900Z,9800.00
2023-05-24T05:56:45.886Z,9652.00
2023-05-24T05:57:45.894Z,9488.00
2023-05-24T05:58:45.985Z,9388.00
2023-05-24T05:59:45.856Z,9336.00
2023-05-24T06:00:45.832Z,9340.00
2023-05-24T06:01:45.832Z,9340.00
2023-05-24T06:02:45.860Z,9360.00
2023-05-24T06:03:45.569Z,9392.00
2023-05-24T06:04:46.110Z,9452.00
2023-05-24T06:05:45.923Z,9520.00
2023-05-24T06:06:44.983Z,9564.00
2023-05-24T06:07:45.737Z,9580.00
2023-05-24T06:08:45.719Z,9588.00
2023-05-24T06:09:45.699Z,9604.00
2023-05-24T06:10:45.699Z,12912.00
2023-05-24T06:11:45.718Z,24640.00
2023-05-24T06:12:45.663Z,33824.00
2023-05-24T06:13:45.656Z,32384.00
2023-05-24T06:14:45.627Z,29120.00
2023-05-24T06:15:45.653Z,27712.00
2023-05-24T06:16:44.728Z,27904.00
2023-05-24T06:17:45.622Z,30336.00
2023-05-24T06:18:57.089Z,32672.00
2023-05-24T06:19:46.564Z,37408.00
2023-05-24T06:20:46.025Z,40704.00
2023-05-24T06:21:45.066Z,41984.00
2023-05-24T06:22:45.513Z,44000.00
2023-05-24T06:23:45.525Z,42048.00
2023-05-24T06:24:45.493Z,36384.00
2023-05-24T06:25:45.722Z,33280.00
2023-05-24T06:26:45.468Z,30016.00
2023-05-24T06:27:45.458Z,27168.00
2023-05-24T06:28:45.468Z,26208.00
2023-05-24T06:29:45.451Z,25568.00
2023-05-24T06:30:45.702Z,26528.00
2023-05-24T06:31:45.429Z,31360.00
2023-05-24T06:32:45.420Z,37536.00
2023-05-24T06:33:52.496Z,40128.00
2023-05-24T06:34:46.380Z,43360.00
2023-05-24T06:35:45.355Z,45824.00
2023-05-24T06:36:45.335Z,47104.00
2023-05-24T06:37:45.319Z,49920.00
2023-05-24T06:38:45.302Z,47744.00
2023-05-24T06:39:45.301Z,52096.00
2023-05-24T06:40:45.276Z,47744.00
2023-05-24T06:41:45.257Z,28256.00
2023-05-24T06:42:45.264Z,45760.00
2023-05-24T06:43:45.239Z,47104.00
2023-05-24T06:44:45.224Z,47296.00
2023-05-24T06:45:45.210Z,47840.00
2023-05-24T06:46:45.208Z,47904.00
2023-05-24T06:47:45.247Z,47424.00
2023-05-24T06:48:45.372Z,49312.00
2023-05-24T06:49:45.185Z,48992.00
2023-05-24T06:50:45.283Z,48640.00
2023-05-24T06:51:44.389Z,52064.00
2023-05-24T06:52:45.117Z,49920.00
2023-05-24T06:53:45.122Z,49152.00
2023-05-24T06:54:45.088Z,51776.00
2023-05-24T06:55:45.082Z,47840.00
2023-05-24T06:56:45.063Z,48768.00
2023-05-24T06:57:45.054Z,50560.00
2023-05-24T06:58:45.057Z,52320.00
2023-05-24T06:59:45.058Z,54048.00
2023-05-24T07:00:45.315Z,53536.00
2023-05-24T07:01:45.173Z,54016.00
2023-05-24T07:02:45.053Z,53088.00
2023-05-24T07:03:44.970Z,53664.00
2023-05-24T07:04:44.962Z,52864.00
2023-05-24T07:05:44.936Z,52608.00
2023-05-24T07:06:44.992Z,54560.00
2023-05-24T07:07:44.448Z,52384.00
2023-05-24T07:08:44.918Z,52320.00
2023-05-24T07:09:44.896Z,55808.00
2023-05-24T07:10:45.086Z,55872.00
2023-05-24T07:11:44.920Z,52960.00
2023-05-24T07:12:44.858Z,55616.00
2023-05-24T07:13:44.842Z,59968.00
2023-05-24T07:14:44.938Z,57888.00
2023-05-24T07:15:44.810Z,59360.00
2023-05-24T07:16:44.858Z,61344.00
2023-05-24T07:17:44.817Z,58912.00
2023-05-24T07:18:44.781Z,60544.00
2023-05-24T07:19:44.767Z,60992.00
2023-05-24T07:20:45.402Z,60544.00
2023-05-24T07:21:44.724Z,63520.00
2023-05-24T07:22:44.742Z,63680.00
2023-05-24T07:23:44.689Z,64544.00
2023-05-24T07:24:44.691Z,67360.00
2023-05-24T07:25:44.667Z,66656.00
2023-05-24T07:26:44.682Z,67552.00
2023-05-24T07:27:44.668Z,67520.00
2023-05-24T07:28:44.628Z,68256.00
2023-05-24T07:29:46.944Z,67840.00
2023-05-24T07:30:44.623Z,66080.00
2023-05-24T07:31:44.653Z,67168.00
2023-05-24T07:32:44.706Z,66208.00
2023-05-24T07:33:44.560Z,63264.00
2023-05-24T07:34:44.541Z,64192.00
2023-05-24T07:35:44.525Z,63392.00
2023-05-24T07:36:44.550Z,60864.00
2023-05-24T07:37:44.500Z,64992.00
2023-05-24T07:38:44.539Z,68928.00
2023-05-24T07:39:44.490Z,68096.00
2023-05-24T07:40:44.676Z,70560.00
2023-05-24T07:41:44.470Z,71328.00
2023-05-24T07:42:44.432Z,71584.00
2023-05-24T07:43:44.449Z,72064.00
2023-05-24T07:44:44.398Z,70080.00
2023-05-24T07:45:44.529Z,70304.00
2023-05-24T07:46:44.468Z,72896.00
2023-05-24T07:47:44.405Z,72928.00
2023-05-24T07:48:44.348Z,72960.00
2023-05-24T07:49:44.350Z,72928.00
2023-05-24T07:50:44.472Z,72896.00
2023-05-24T07:51:44.335Z,73792.00
2023-05-24T07:52:44.299Z,73568.00
2023-05-24T07:53:44.290Z,73504.00
2023-05-24T07:54:44.290Z,73568.00
2023-05-24T07:55:44.451Z,74592.00
2023-05-24T07:56:44.253Z,75616.00
2023-05-24T07:57:44.254Z,78848.00
2023-05-24T07:58:44.224Z,78720.00
2023-05-24T07:59:44.229Z,78560.00
2023-05-24T08:00:42.310Z,79904.00
2023-05-24T08:01:44.192Z,82304.00
2023-05-24T08:02:44.348Z,81280.00
2023-05-24T08:03:44.326Z,77504.00
2023-05-24T08:04:44.155Z,72992.00
2023-05-24T08:05:44.333Z,72672.00
2023-05-24T08:06:44.151Z,73504.00
2023-05-24T08:07:44.135Z,74528.00
2023-05-24T08:08:44.130Z,72000.00
2023-05-24T08:09:44.097Z,69984.00
2023-05-24T08:10:44.082Z,72384.00
2023-05-24T08:11:44.083Z,75328.00
2023-05-24T08:12:44.038Z,76320.00
2023-05-24T08:13:44.047Z,78560.00
2023-05-24T08:14:44.049Z,80064.00
2023-05-24T08:15:44.287Z,80320.00
2023-05-24T08:16:44.091Z,78720.00
2023-05-24T08:17:43.997Z,80576.00
2023-05-24T08:18:43.977Z,81504.00
2023-05-24T08:19:43.946Z,79424.00
2023-05-24T08:20:43.977Z,77440.00
2023-05-24T08:21:43.919Z,80256.00
2023-05-24T08:22:43.978Z,82656.00
2023-05-24T08:23:43.916Z,81376.00
2023-05-24T08:24:43.871Z,80256.00
2023-05-24T08:25:44.175Z,82112.00
2023-05-24T08:26:43.871Z,84128.00
2023-05-24T08:27:43.908Z,80512.00
2023-05-24T08:28:43.861Z,77280.00
2023-05-24T08:29:43.830Z,78080.00
2023-05-24T08:30:43.816Z,75936.00
2023-05-24T08:31:43.890Z,72000.00
2023-05-24T08:32:43.833Z,69568.00
2023-05-24T08:33:43.758Z,68640.00
2023-05-24T08:34:43.799Z,67776.00
2023-05-24T08:35:43.996Z,66208.00
2023-05-24T08:36:43.731Z,66784.00
2023-05-24T08:37:43.729Z,70176.00
2023-05-24T08:38:43.691Z,70528.00
2023-05-24T08:39:43.680Z,68832.00
2023-05-24T08:40:43.737Z,66496.00
2023-05-24T08:41:47.399Z,70304.00
2023-05-24T08:42:44.680Z,72064.00
2023-05-24T08:43:43.623Z,67552.00
2023-05-24T08:44:43.603Z,62144.00
2023-05-24T08:45:43.868Z,63712.00
2023-05-24T08:46:43.659Z,67520.00
2023-05-24T08:47:43.659Z,69248.00
2023-05-24T08:48:43.597Z,69632.00
2023-05-24T08:49:43.548Z,67840.00
2023-05-24T08:50:43.546Z,67552.00
2023-05-24T08:51:43.550Z,69664.00
2023-05-24T08:52:43.519Z,74240.00
2023-05-24T08:53:43.516Z,78240.00
2023-05-24T08:54:43.501Z,78016.00
2023-05-24T08:55:43.881Z,78336.00
2023-05-24T08:56:43.484Z,82400.00
2023-05-24T08:57:43.460Z,85984.00
2023-05-24T08:58:43.451Z,83872.00
2023-05-24T08:59:43.446Z,77728.00
2023-05-24T09:00:43.424Z,75872.00
2023-05-24T09:01:43.402Z,80096.00
2023-05-24T09:02:43.492Z,85248.00
2023-05-24T09:03:43.439Z,88096.00
2023-05-24T09:04:43.388Z,84736.00
2023-05-24T09:05:43.616Z,79040.00
2023-05-24T09:06:43.329Z,80992.00
2023-05-24T09:07:43.316Z,87648.00
2023-05-24T09:08:43.998Z,90016.00
2023-05-24T09:09:43.345Z,84800.00
2023-05-24T09:10:53.995Z,79424.00
2023-05-24T09:11:44.287Z,80448.00
2023-05-24T09:12:43.285Z,83200.00
2023-05-24T09:13:43.240Z,83712.00
2023-05-24T09:14:43.280Z,80224.00
2023-05-24T09:15:43.472Z,80256.00
2023-05-24T09:16:43.282Z,81760.00
2023-05-24T09:17:43.252Z,82080.00
2023-05-24T09:18:43.242Z,81504.00
2023-05-24T09:19:43.196Z,81600.00
2023-05-24T09:20:43.377Z,83424.00
2023-05-24T09:21:43.151Z,84576.00
2023-05-24T09:22:43.176Z,80800.00
2023-05-24T09:23:43.155Z,78496.00
2023-05-24T09:24:43.115Z,84768.00
2023-05-24T09:25:43.102Z,92000.00
2023-05-24T09:26:43.080Z,92320.00
2023-05-24T09:27:43.067Z,86944.00
2023-05-24T09:28:43.064Z,82432.00
2023-05-24T09:29:43.049Z,85728.00
2023-05-24T09:30:43.153Z,92448.00
2023-05-24T09:31:43.103Z,95840.00
2023-05-24T09:32:43.019Z,94912.00
2023-05-24T09:33:43.005Z,93568.00
2023-05-24T09:34:43.012Z,90976.00
2023-05-24T09:35:43.015Z,90336.00
2023-05-24T09:36:43.011Z,91104.00
2023-05-24T09:37:42.945Z,94048.00
2023-05-24T09:38:42.947Z,94144.00
2023-05-24T09:39:42.918Z,92256.00
2023-05-24T09:40:43.073Z,90176.00
2023-05-24T09:41:42.901Z,88160.00
2023-05-24T09:42:42.865Z,88736.00
2023-05-24T09:43:42.873Z,92224.00
2023-05-24T09:44:42.848Z,94912.00
2023-05-24T09:45:42.869Z,94944.00
2023-05-24T09:46:42.856Z,94400.00
2023-05-24T09:47:42.862Z,94176.00
2023-05-24T09:48:42.814Z,92736.00
2023-05-24T09:49:42.793Z,91104.00
2023-05-24T09:50:42.940Z,90656.00
2023-05-24T09:51:42.816Z,89088.00
2023-05-24T09:52:42.257Z,88768.00
2023-05-24T09:53:42.745Z,92224.00
2023-05-24T09:54:42.738Z,95168.00
2023-05-24T09:55:42.701Z,96192.00
2023-05-24T09:56:42.724Z,91456.00
2023-05-24T09:57:42.700Z,87904.00
2023-05-24T09:58:42.706Z,91808.00
2023-05-24T09:59:42.653Z,96384.00
2023-05-24T10:00:43.262Z,95936.00
2023-05-24T10:01:42.732Z,91840.00
2023-05-24T10:02:52.306Z,91936.00
2023-05-24T10:03:43.260Z,95712.00
2023-05-24T10:04:42.663Z,99328.00
2023-05-24T10:05:42.572Z,101184.00
2023-05-24T10:06:42.581Z,100864.00
2023-05-24T10:07:40.625Z,101312.00
2023-05-24T10:08:42.541Z,101152.00
2023-05-24T10:09:42.532Z,102944.00
2023-05-24T10:10:43.014Z,105568.00
2023-05-24T10:11:42.586Z,103616.00
2023-05-24T10:12:42.509Z,100928.00
2023-05-24T10:13:42.504Z,102688.00
2023-05-24T10:14:42.461Z,105664.00
2023-05-24T10:15:42.529Z,104960.00
2023-05-24T10:16:42.570Z,104320.00
2023-05-24T10:17:42.522Z,104672.00
2023-05-24T10:18:42.438Z,106592.00
2023-05-24T10:19:42.413Z,110336.00
2023-05-24T10:20:42.759Z,108384.00
2023-05-24T10:21:42.453Z,103104.00
2023-05-24T10:22:42.377Z,102688.00
2023-05-24T10:23:42.365Z,103264.00
2023-05-24T10:24:42.357Z,103040.00
2023-05-24T10:25:42.356Z,103168.00
2023-05-24T10:26:42.358Z,105216.00
2023-05-24T10:27:42.309Z,104128.00
2023-05-24T10:28:42.309Z,102336.00
2023-05-24T10:29:42.283Z,101472.00
2023-05-24T10:30:42.730Z,103232.00
2023-05-24T10:31:42.426Z,104416.00
2023-05-24T10:32:42.263Z,103904.00
2023-05-24T10:33:42.264Z,102688.00
2023-05-24T10:34:42.238Z,104384.00
2023-05-24T10:35:42.242Z,103936.00
2023-05-24T10:36:42.203Z,103744.00
2023-05-24T10:37:42.176Z,106112.00
2023-05-24T10:38:42.180Z,108192.00
2023-05-24T10:39:42.164Z,110304.00
2023-05-24T10:40:42.215Z,113376.00
2023-05-24T10:41:42.311Z,113664.00
2023-05-24T10:42:42.164Z,115840.00
2023-05-24T10:43:42.433Z,122368.00
2023-05-24T10:44:42.117Z,127168.00
2023-05-24T10:45:42.396Z,131424.00
2023-05-24T10:46:42.103Z,134560.00
2023-05-24T10:47:42.104Z,137152.00
2023-05-24T10:48:42.084Z,74880.00
2023-05-24T10:49:42.062Z,74048.00
2023-05-24T10:50:42.504Z,120704.00
2023-05-24T10:51:42.127Z,71040.00
2023-05-24T10:52:42.043Z,49376.00
2023-05-24T10:53:42.009Z,103712.00
2023-05-24T10:54:49.601Z,79200.00
2023-05-24T10:55:42.946Z,114528.00
2023-05-24T10:56:41.960Z,58016.00
2023-05-24T10:57:40.026Z,60416.00
2023-05-24T10:58:41.960Z,78016.00
2023-05-24T10:59:41.940Z,67072.00
2023-05-24T11:00:41.918Z,108064.00
2023-05-24T11:01:41.913Z,62272.00
2023-05-24T11:02:41.907Z,68160.00
2023-05-24T11:03:41.898Z,63488.00
2023-05-24T11:04:41.873Z,93440.00
2023-05-24T11:05:43.176Z,77024.00
2023-05-24T11:06:41.844Z,126240.00
2023-05-24T11:07:42.115Z,128384.00
2023-05-24T11:08:41.801Z,122208.00
2023-05-24T11:09:41.923Z,119936.00
2023-05-24T11:10:42.921Z,117664.00
2023-05-24T11:11:41.810Z,114656.00
2023-05-24T11:12:41.750Z,111520.00
2023-05-24T11:13:41.784Z,109280.00
2023-05-24T11:14:41.738Z,107392.00
2023-05-24T11:15:41.721Z,107072.00
2023-05-24T11:16:41.735Z,106432.00
2023-05-24T11:17:43.586Z,105056.00
2023-05-24T11:18:41.693Z,98304.00
2023-05-24T11:19:41.669Z,110976.00
2023-05-24T11:20:41.969Z,115776.00
2023-05-24T11:21:41.637Z,116864.00
2023-05-24T11:22:41.654Z,113536.00
2023-05-24T11:23:41.659Z,110176.00
2023-05-24T11:24:41.628Z,109600.00
2023-05-24T11:25:41.080Z,109376.00
2023-05-24T11:26:41.579Z,109152.00
2023-05-24T11:27:41.581Z,112288.00
2023-05-24T11:28:41.622Z,115040.00
2023-05-24T11:29:41.558Z,112608.00
2023-05-24T11:30:41.731Z,111008.00
2023-05-24T11:31:44.081Z,111968.00
2023-05-24T11:32:41.517Z,114752.00
2023-05-24T11:33:41.532Z,113344.00
2023-05-24T11:34:42.418Z,108416.00
2023-05-24T11:35:39.640Z,105024.00
2023-05-24T11:36:41.478Z,102944.00
2023-05-24T11:38:41.425Z,101888.00
2023-05-24T11:39:41.417Z,102880.00
2023-05-24T11:40:41.612Z,100480.00
2023-05-24T11:41:41.391Z,94880.00
2023-05-24T11:42:42.330Z,92672.00
2023-05-24T11:43:41.343Z,95840.00
2023-05-24T11:44:41.344Z,97088.00
2023-05-24T11:45:41.367Z,94336.00
2023-05-24T11:46:41.323Z,89728.00
2023-05-24T11:47:41.363Z,86912.00
2023-05-24T11:48:42.255Z,90624.00
2023-05-24T11:49:41.308Z,89568.00
2023-05-24T11:50:49.269Z,95360.00
2023-05-24T11:51:42.399Z,89504.00
2023-05-24T11:52:41.618Z,86016.00
2023-05-24T11:53:41.237Z,88640.00
2023-05-24T11:54:41.262Z,93344.00
2023-05-24T11:55:41.414Z,90496.00
2023-05-24T11:56:41.216Z,85632.00
2023-05-24T11:57:41.212Z,84320.00
2023-05-24T11:58:41.163Z,86912.00
2023-05-24T11:59:41.184Z,89824.00
2023-05-24T12:00:41.376Z,90304.00
2023-05-24T12:01:41.181Z,93472.00
2023-05-24T12:02:41.167Z,94656.00
2023-05-24T12:03:41.219Z,92640.00
2023-05-24T12:04:41.132Z,90528.00
2023-05-24T12:05:41.081Z,94848.00
2023-05-24T12:06:41.095Z,99552.00
2023-05-24T12:07:41.050Z,99968.00
2023-05-24T12:08:41.252Z,98752.00
2023-05-24T12:09:41.050Z,102432.00
2023-05-24T12:10:41.194Z,105280.00
2023-05-24T12:11:40.977Z,106144.00
2023-05-24T12:12:45.775Z,105632.00